createdAt,value
2023-09-06T00:03:01.923Z,101154.44
2023-09-06T00:06:05.823Z,101159.22
2023-09-06T00:09:08.185Z,101158.87
2023-09-06T00:12:10.921Z,101162.84
2023-09-06T00:15:16.451Z,101159.06
2023-09-06T00:18:19.107Z,101148.66
2023-09-06T00:21:23.223Z,101148.84
2023-09-06T00:24:25.904Z,101155.97
2023-09-06T00:27:29.502Z,101152.19
2023-09-06T00:30:32.663Z,101150.53
2023-09-06T00:33:36.905Z,101145.87
2023-09-06T00:36:39.715Z,101149.56
2023-09-06T00:39:42.696Z,101151.19
2023-09-06T00:43:01.199Z,101160.31
2023-09-06T00:46:08.871Z,101154.84
2023-09-06T00:49:11.958Z,101154.34
2023-09-06T00:52:17.732Z,101154.53
2023-09-06T00:55:21.647Z,101166.13
2023-09-06T00:58:24.195Z,101174.25
2023-09-06T01:01:26.992Z,101159.50
2023-09-06T01:04:29.512Z,101165.13
2023-09-06T01:07:38.202Z,101162.47
2023-09-06T01:10:40.610Z,101140.16
2023-09-06T01:13:43.292Z,101164.47
2023-09-06T01:16:48.604Z,101159.19
2023-09-06T01:20:25.272Z,101170.94
2023-09-06T01:23:31.749Z,101161.50
2023-09-06T01:26:35.495Z,101167.28
2023-09-06T01:29:37.882Z,101165.28
2023-09-06T01:32:42.143Z,101165.47
2023-09-06T01:35:44.771Z,101160.47
2023-09-06T01:38:47.511Z,101159.63
2023-09-06T01:41:50.917Z,101167.78
2023-09-06T01:44:55.168Z,101170.72
2023-09-06T01:47:57.628Z,101170.41
2023-09-06T01:51:00.321Z,101165.37
2023-09-06T01:54:05.593Z,101162.22
2023-09-06T01:57:09.587Z,101166.66
2023-09-06T02:00:27.722Z,101174.75
2023-09-06T02:03:30.454Z,101168.63
2023-09-06T02:06:32.979Z,101164.16
2023-09-06T02:09:35.646Z,101168.44
2023-09-06T02:12:39.391Z,101172.75
2023-09-06T02:15:42.652Z,101171.53
2023-09-06T02:18:45.217Z,101156.28
2023-09-06T02:21:48.060Z,101159.81
2023-09-06T02:24:50.436Z,101169.75
2023-09-06T02:27:53.996Z,101154.84
2023-09-06T02:30:56.458Z,101153.16
2023-09-06T02:33:59.164Z,101172.47
2023-09-06T02:37:02.054Z,101161.38
2023-09-06T02:40:10.373Z,101157.91
2023-09-06T02:43:14.917Z,101163.31
2023-09-06T02:46:17.859Z,101165.50
2023-09-06T02:49:20.246Z,101169.09
2023-09-06T02:52:31.675Z,101160.03
2023-09-06T02:55:36.599Z,101159.94
2023-09-06T02:58:40.364Z,101171.41
2023-09-06T03:01:46.389Z,101165.84
2023-09-06T03:04:56.112Z,101154.56
2023-09-06T03:07:58.935Z,101170.78
2023-09-06T03:11:01.999Z,101160.19
2023-09-06T03:14:05.788Z,101162.16
2023-09-06T03:17:09.695Z,101167.97
2023-09-06T03:20:32.664Z,101167.88
2023-09-06T03:23:37.091Z,101169.75
2023-09-06T03:26:44.868Z,101160.41
2023-09-06T03:29:52.714Z,101167.47
2023-09-06T03:32:55.980Z,101170.50
2023-09-06T03:35:58.911Z,101165.00
2023-09-06T03:39:02.163Z,101167.50
2023-09-06T03:42:09.677Z,101176.22
2023-09-06T03:45:16.715Z,101165.47
2023-09-06T03:48:22.126Z,101171.59
2023-09-06T03:51:25.786Z,101180.13
2023-09-06T03:54:28.565Z,101179.19
2023-09-06T03:57:30.885Z,101173.16
2023-09-06T04:00:33.914Z,101184.47
2023-09-06T04:03:39.730Z,101177.72
2023-09-06T04:06:45.658Z,101181.34
2023-09-06T04:09:48.781Z,101185.81
2023-09-06T04:12:52.478Z,101178.09
2023-09-06T04:15:55.702Z,101185.06
2023-09-06T04:18:59.614Z,101175.81
2023-09-06T04:22:03.169Z,101177.06
2023-09-06T04:25:07.872Z,101181.50
2023-09-06T04:28:14.853Z,101195.63
2023-09-06T04:31:20.225Z,101190.00
2023-09-06T04:34:23.588Z,101184.84
2023-09-06T04:37:26.069Z,101190.00
2023-09-06T04:40:30.509Z,101199.97
2023-09-06T04:43:33.332Z,101201.44
2023-09-06T04:46:36.237Z,101205.59
2023-09-06T04:49:40.594Z,101207.75
2023-09-06T04:52:49.872Z,101216.06
2023-09-06T04:55:54.501Z,101211.88
2023-09-06T04:58:57.620Z,101198.97
2023-09-06T05:05:03.076Z,101208.44
2023-09-06T05:08:06.462Z,101212.38
2023-09-06T05:11:09.178Z,101220.28
2023-09-06T05:14:12.098Z,101208.53
2023-09-06T05:17:16.548Z,101213.03
2023-09-06T05:20:26.560Z,101224.75
2023-09-06T05:23:29.570Z,101228.97
2023-09-06T05:26:34.790Z,101228.84
2023-09-06T05:29:38.069Z,101231.38
2023-09-06T05:32:40.627Z,101223.97
2023-09-06T05:35:44.837Z,101224.09
2023-09-06T05:38:47.600Z,101234.41
2023-09-06T05:41:51.947Z,101228.16
2023-09-06T05:44:54.411Z,101229.81
2023-09-06T05:47:57.786Z,101241.28
2023-09-06T05:51:01.067Z,101228.22
2023-09-06T05:54:04.242Z,101237.88
2023-09-06T05:57:07.645Z,101231.94
2023-09-06T06:00:16.882Z,101229.97
2023-09-06T06:03:21.238Z,101235.03
2023-09-06T06:06:23.947Z,101230.19
2023-09-06T06:09:29.521Z,101227.31
2023-09-06T06:12:34.009Z,101234.56
2023-09-06T06:15:36.713Z,101236.53
2023-09-06T06:18:39.177Z,101234.28
2023-09-06T06:21:42.024Z,101235.75
2023-09-06T06:24:47.322Z,101233.53
2023-09-06T06:27:53.222Z,101226.13
2023-09-06T06:30:55.805Z,101238.31
2023-09-06T06:34:00.575Z,101248.19
2023-09-06T06:37:02.972Z,101243.41
2023-09-06T06:40:06.582Z,101258.88
2023-09-06T06:43:09.025Z,101249.00
2023-09-06T06:46:25.569Z,101256.97
2023-09-06T06:49:28.498Z,101263.84
2023-09-06T06:52:36.272Z,101256.41
2023-09-06T06:55:39.376Z,101263.31
2023-09-06T06:58:42.190Z,101260.97
2023-09-06T07:01:44.639Z,101261.91
2023-09-06T07:04:47.559Z,101264.91
2023-09-06T07:07:50.063Z,101254.25
2023-09-06T07:10:52.975Z,101259.75
2023-09-06T07:13:55.485Z,101258.16
2023-09-06T07:17:00.189Z,101250.59
2023-09-06T07:20:03.509Z,101258.84
2023-09-06T07:23:06.311Z,101248.47
2023-09-06T07:26:08.927Z,101246.50
2023-09-06T07:29:11.853Z,101250.03
2023-09-06T07:32:14.511Z,101247.31
2023-09-06T07:35:17.334Z,101236.81
2023-09-06T07:38:19.764Z,101238.13
2023-09-06T07:41:23.214Z,101241.19
2023-09-06T07:44:25.736Z,101241.06
2023-09-06T07:47:28.666Z,101243.91
2023-09-06T07:50:32.738Z,101252.03
2023-09-06T07:53:35.674Z,101248.47
2023-09-06T07:56:39.456Z,101240.34
2023-09-06T07:59:42.227Z,101244.28
2023-09-06T08:02:44.657Z,101245.41
2023-09-06T08:05:48.084Z,101250.91
2023-09-06T08:08:50.783Z,101253.03
2023-09-06T08:11:53.669Z,101258.22
2023-09-06T08:14:56.191Z,101272.41
2023-09-06T08:18:00.194Z,101263.31
2023-09-06T08:21:02.936Z,101267.25
2023-09-06T08:24:05.952Z,101267.47
2023-09-06T08:27:08.479Z,101263.75
2023-09-06T08:30:14.081Z,101262.34
2023-09-06T08:33:16.755Z,101252.75
2023-09-06T08:36:19.715Z,101260.34
2023-09-06T08:39:22.359Z,101261.34
2023-09-06T08:42:28.814Z,101253.00
2023-09-06T08:45:31.746Z,101253.00
2023-09-06T08:48:35.113Z,101259.16
2023-09-06T08:51:38.954Z,101242.12
2023-09-06T08:54:45.469Z,101245.78
2023-09-06T08:57:48.587Z,101246.16
2023-09-06T09:00:51.652Z,101232.97
2023-09-06T09:03:55.008Z,101240.94
2023-09-06T09:06:59.186Z,101244.75
2023-09-06T09:10:08.532Z,101242.66
2023-09-06T09:13:13.469Z,101241.91
2023-09-06T09:16:17.792Z,101252.59
2023-09-06T09:19:22.718Z,101250.09
2023-09-06T09:22:31.570Z,101248.72
2023-09-06T09:25:34.575Z,101245.47
2023-09-06T09:28:37.040Z,101244.41
2023-09-06T09:31:41.384Z,101235.41
2023-09-06T09:34:46.186Z,101239.97
2023-09-06T09:37:52.629Z,101234.47
2023-09-06T09:41:07.812Z,101229.72
2023-09-06T09:44:15.297Z,101228.84
2023-09-06T09:47:39.784Z,101217.56
2023-09-06T09:50:42.816Z,101219.06
2023-09-06T09:53:46.197Z,101205.91
2023-09-06T09:57:08.046Z,101206.31
2023-09-06T10:00:13.664Z,101213.47
2023-09-06T10:03:16.809Z,101207.41
2023-09-06T10:06:21.046Z,101215.09
2023-09-06T10:09:23.901Z,101212.06
2023-09-06T10:12:29.219Z,101204.50
2023-09-06T10:15:33.995Z,101193.91
2023-09-06T10:18:38.304Z,101202.72
2023-09-06T10:21:43.543Z,101200.28
2023-09-06T10:24:52.735Z,101197.03
2023-09-06T10:28:00.589Z,101196.88
2023-09-06T10:31:10.074Z,101180.41
2023-09-06T10:34:14.624Z,101177.53
2023-09-06T10:37:17.479Z,101192.28
2023-09-06T10:40:20.168Z,101184.22
2023-09-06T10:43:32.687Z,101182.44
2023-09-06T10:46:38.594Z,101175.25
2023-09-06T10:50:13.392Z,101176.91
2023-09-06T10:53:20.202Z,101181.81
2023-09-06T10:56:29.357Z,101172.87
2023-09-06T10:59:32.539Z,101175.94
2023-09-06T11:02:36.528Z,101171.41
2023-09-06T11:05:41.279Z,101165.69
2023-09-06T11:08:44.110Z,101173.81
2023-09-06T11:11:52.439Z,101162.75
2023-09-06T11:14:56.062Z,101159.81
2023-09-06T11:18:01.507Z,101160.75
2023-09-06T11:21:05.956Z,101152.72
2023-09-06T11:24:08.479Z,101151.16
2023-09-06T11:27:26.039Z,101152.34
2023-09-06T11:30:32.769Z,101151.13
2023-09-06T11:33:37.908Z,101136.34
2023-09-06T11:36:40.576Z,101138.44
2023-09-06T11:39:47.417Z,101136.47
2023-09-06T11:42:55.473Z,101135.28
2023-09-06T11:46:05.031Z,101130.22
2023-09-06T11:49:08.037Z,101127.88
2023-09-06T11:52:14.711Z,101119.31
2023-09-06T11:55:18.809Z,101115.63
2023-09-06T11:58:23.039Z,101124.16
2023-09-06T12:01:26.101Z,101114.38
2023-09-06T12:04:30.998Z,101101.28
2023-09-06T12:07:33.673Z,101110.31
2023-09-06T12:10:36.704Z,101102.13
2023-09-06T12:13:39.832Z,101096.38
2023-09-06T12:16:43.055Z,101086.16
2023-09-06T12:19:45.938Z,101090.25
2023-09-06T12:22:48.662Z,101088.59
2023-09-06T12:25:51.101Z,101086.91
2023-09-06T12:28:53.793Z,101075.94
2023-09-06T12:31:56.348Z,101084.91
2023-09-06T12:34:59.177Z,101088.22
2023-09-06T12:38:01.500Z,101086.53
2023-09-06T12:41:06.133Z,101074.25
2023-09-06T12:44:08.612Z,101074.16
2023-09-06T12:47:17.706Z,101060.34
2023-09-06T12:50:21.161Z,101066.53
2023-09-06T12:53:24.388Z,101044.41
2023-09-06T12:56:26.900Z,101058.31
2023-09-06T12:59:29.668Z,101048.00
2023-09-06T13:02:34.889Z,101047.91
2023-09-06T13:05:41.366Z,101043.50
2023-09-06T13:08:45.740Z,101041.53
2023-09-06T13:11:48.600Z,101041.91
2023-09-06T13:14:51.184Z,101043.59
2023-09-06T13:17:53.983Z,101039.00
2023-09-06T13:20:58.294Z,101030.09
2023-09-06T13:24:05.246Z,101033.31
2023-09-06T13:27:08.133Z,101032.88
2023-09-06T13:30:11.698Z,101034.94
2023-09-06T13:33:14.161Z,101025.16
2023-09-06T13:36:17.844Z,101024.34
2023-09-06T13:39:22.118Z,101023.53
2023-09-06T13:42:25.172Z,101014.88
2023-09-06T13:45:29.429Z,101007.44
2023-09-06T13:48:33.456Z,101018.53
2023-09-06T13:51:36.881Z,101013.69
2023-09-06T13:54:39.681Z,101012.75
2023-09-06T13:57:42.108Z,101006.72
2023-09-06T14:00:44.978Z,101003.84
2023-09-06T14:03:47.727Z,101012.06
2023-09-06T14:06:50.520Z,100994.06
2023-09-06T14:09:53.281Z,100997.72
2023-09-06T14:12:55.692Z,100999.34
2023-09-06T14:15:59.575Z,100990.72
2023-09-06T14:19:02.110Z,100988.72
2023-09-06T14:22:10.680Z,100984.28
2023-09-06T14:25:13.326Z,100981.03
2023-09-06T14:28:16.004Z,100975.31
2023-09-06T14:31:18.511Z,100978.97
2023-09-06T14:34:21.278Z,100978.56
2023-09-06T14:37:23.693Z,100976.97
2023-09-06T14:40:26.398Z,100973.66
2023-09-06T14:43:29.338Z,100968.75
2023-09-06T14:46:32.591Z,100976.97
2023-09-06T14:49:35.129Z,100971.63
2023-09-06T14:52:37.918Z,100966.31
2023-09-06T14:55:40.363Z,100969.56
2023-09-06T14:58:44.120Z,100951.19
2023-09-06T15:01:46.757Z,100954.06
2023-09-06T15:04:49.670Z,100963.88
2023-09-06T15:07:52.051Z,100965.50
2023-09-06T15:10:54.793Z,100953.22
2023-09-06T15:13:57.251Z,100961.38
2023-09-06T15:16:59.948Z,100958.91
2023-09-06T15:20:11.891Z,100952.78
2023-09-06T15:23:15.283Z,100964.56
2023-09-06T15:26:19.150Z,100956.41
2023-09-06T15:29:21.989Z,100953.97
2023-09-06T15:32:25.808Z,100954.78
2023-09-06T15:35:29.601Z,100953.13
2023-09-06T15:38:32.197Z,100953.91
2023-09-06T15:41:34.849Z,100957.59
2023-09-06T15:44:37.982Z,100963.69
2023-09-06T15:47:42.096Z,100953.03
2023-09-06T15:50:44.798Z,100961.16
2023-09-06T15:53:47.809Z,100957.91
2023-09-06T15:56:51.062Z,100960.28
2023-09-06T15:59:53.796Z,100956.97
2023-09-06T16:02:56.600Z,100959.37
2023-09-06T16:05:59.339Z,100949.16
2023-09-06T16:09:02.723Z,100961.38
2023-09-06T16:12:06.005Z,100952.75
2023-09-06T16:15:09.994Z,100959.28
2023-09-06T16:18:13.674Z,100958.47
2023-09-06T16:21:16.137Z,100960.09
2023-09-06T16:24:19.700Z,100956.31
2023-09-06T16:27:23.208Z,100950.94
2023-09-06T16:30:26.887Z,100969.72
2023-09-06T16:33:33.545Z,100972.13
2023-09-06T16:36:36.403Z,100964.34
2023-09-06T16:39:41.170Z,100968.00
2023-09-06T16:42:44.283Z,100963.03
2023-09-06T16:45:47.730Z,100971.59
2023-09-06T16:48:50.589Z,100971.94
2023-09-06T16:51:53.243Z,100974.72
2023-09-06T16:54:57.254Z,100965.25
2023-09-06T16:57:59.860Z,100975.03
2023-09-06T17:01:02.614Z,100981.53
2023-09-06T17:04:06.250Z,100977.38
2023-09-06T17:07:09.246Z,100983.81
2023-09-06T17:10:11.910Z,100991.06
2023-09-06T17:13:15.113Z,100988.97
2023-09-06T17:16:21.622Z,100997.44
2023-09-06T17:19:25.173Z,100984.34
2023-09-06T17:22:27.585Z,100981.75
2023-09-06T17:25:31.658Z,100988.22
2023-09-06T17:28:37.459Z,100983.22
2023-09-06T17:31:40.226Z,100997.03
2023-09-06T17:34:42.748Z,100994.41
2023-09-06T17:37:45.602Z,101004.13
2023-09-06T17:40:53.277Z,101004.06
2023-09-06T17:43:56.163Z,101008.06
2023-09-06T17:47:02.748Z,101011.62
2023-09-06T17:50:10.614Z,101022.97
2023-09-06T17:53:18.546Z,101006.13
2023-09-06T17:56:25.455Z,101022.38
2023-09-06T17:59:28.904Z,101023.09
2023-09-06T18:02:33.770Z,101022.94
2023-09-06T18:05:39.282Z,101028.16
2023-09-06T18:08:43.300Z,101025.94
2023-09-06T18:11:47.090Z,101036.16
2023-09-06T18:14:50.797Z,101020.91
2023-09-06T18:17:53.707Z,101044.09
2023-09-06T18:20:57.102Z,101051.75
2023-09-06T18:24:04.458Z,101052.53
2023-09-06T18:27:08.550Z,101053.16
2023-09-06T18:30:11.967Z,101051.31
2023-09-06T18:33:15.740Z,101052.69
2023-09-06T18:36:18.697Z,101046.94
2023-09-06T18:39:21.149Z,101060.66
2023-09-06T18:42:23.851Z,101046.69
2023-09-06T18:45:27.326Z,101065.44
2023-09-06T18:48:30.391Z,101062.09
2023-09-06T18:51:33.043Z,101072.97
2023-09-06T18:54:37.488Z,101065.78
2023-09-06T18:57:51.325Z,101072.25
2023-09-06T19:01:02.934Z,101069.56
2023-09-06T19:04:05.783Z,101075.88
2023-09-06T19:07:08.557Z,101071.72
2023-09-06T19:10:15.768Z,101079.31
2023-09-06T19:13:19.493Z,101084.66
2023-09-06T19:16:25.768Z,101080.81
2023-09-06T19:19:33.830Z,101078.72
2023-09-06T19:22:36.219Z,101074.19
2023-09-06T19:25:44.185Z,101084.72
2023-09-06T19:28:46.574Z,101083.34
2023-09-06T19:31:51.890Z,101078.97
2023-09-06T19:34:54.350Z,101085.13
2023-09-06T19:37:57.135Z,101083.69
2023-09-06T19:41:00.796Z,101089.97
2023-09-06T19:44:03.727Z,101077.72
2023-09-06T19:47:06.386Z,101088.25
2023-09-06T19:50:09.410Z,101082.56
2023-09-06T19:53:11.824Z,101082.88
2023-09-06T19:56:18.194Z,101090.06
2023-09-06T19:59:20.718Z,101089.00
2023-09-06T20:02:23.733Z,101094.47
2023-09-06T20:05:26.846Z,101078.25
2023-09-06T20:08:29.458Z,101096.62
2023-09-06T20:11:33.266Z,101098.53
2023-09-06T20:14:35.701Z,101106.88
2023-09-06T20:17:38.483Z,101105.03
2023-09-06T20:20:41.352Z,101112.22
2023-09-06T20:23:44.724Z,101127.31
2023-09-06T20:26:47.193Z,101109.97
2023-09-06T20:29:50.032Z,101114.72
2023-09-06T20:32:52.587Z,101125.16
2023-09-06T20:35:58.537Z,101128.22
2023-09-06T20:39:01.247Z,101130.72
2023-09-06T20:42:06.354Z,101122.91
2023-09-06T20:45:09.061Z,101122.81
2023-09-06T20:48:12.904Z,101121.53
2023-09-06T20:51:15.585Z,101118.22
2023-09-06T20:54:18.331Z,101121.53
2023-09-06T20:57:20.824Z,101128.28
2023-09-06T21:00:23.891Z,101126.97
2023-09-06T21:03:26.518Z,101112.13
2023-09-06T21:06:29.176Z,101113.75
2023-09-06T21:09:31.561Z,101121.91
2023-09-06T21:12:36.319Z,101118.47
2023-09-06T21:15:39.047Z,101123.25
2023-09-06T21:18:41.917Z,101119.47
2023-09-06T21:21:44.351Z,101134.34
2023-09-06T21:24:47.058Z,101132.94
2023-09-06T21:27:49.539Z,101131.50
2023-09-06T21:30:52.245Z,101114.91
2023-09-06T21:33:54.713Z,101135.66
2023-09-06T21:36:57.537Z,101139.09
2023-09-06T21:40:00.696Z,101142.25
2023-09-06T21:43:16.101Z,101138.25
2023-09-06T21:46:20.565Z,101139.44
2023-09-06T21:49:23.321Z,101136.72
2023-09-06T21:52:25.741Z,101136.16
2023-09-06T21:55:28.504Z,101134.38
2023-09-06T21:58:34.621Z,101138.41
2023-09-06T22:01:51.448Z,101138.28
2023-09-06T22:05:12.172Z,101145.19
2023-09-06T22:08:33.225Z,101139.78
2023-09-06T22:11:54.584Z,101125.97
2023-09-06T22:15:06.023Z,101129.13
2023-09-06T22:18:08.485Z,101116.28
2023-09-06T22:21:11.136Z,101122.06
2023-09-06T22:24:13.821Z,101130.28
2023-09-06T22:27:16.682Z,101120.91
2023-09-06T22:30:19.432Z,101140.69
2023-09-06T22:33:22.207Z,101140.69
2023-09-06T22:36:25.358Z,101132.53
2023-09-06T22:39:28.090Z,101133.81
2023-09-06T22:42:30.457Z,101130.03
2023-09-06T22:45:33.125Z,101138.25
2023-09-06T22:48:53.306Z,101129.97
2023-09-06T22:51:57.027Z,101137.72
2023-09-06T22:54:59.573Z,101129.19
2023-09-06T22:58:02.762Z,101144.81
2023-09-06T23:01:08.724Z,101149.84
2023-09-06T23:04:12.424Z,101142.88
2023-09-06T23:07:16.461Z,101144.12
2023-09-06T23:10:20.944Z,101140.78
2023-09-06T23:13:23.831Z,101142.84
2023-09-06T23:16:26.611Z,101135.41
2023-09-06T23:19:33.577Z,101140.75
2023-09-06T23:22:42.097Z,101140.91
2023-09-06T23:25:51.353Z,101143.16
2023-09-06T23:28:55.095Z,101131.19
2023-09-06T23:32:00.454Z,101145.59
2023-09-06T23:35:07.732Z,101131.84
2023-09-06T23:38:10.817Z,101137.84
2023-09-06T23:41:17.511Z,101144.03
2023-09-06T23:44:20.588Z,101142.94
2023-09-06T23:47:23.408Z,101144.56
2023-09-06T23:50:28.017Z,101132.19
2023-09-06T23:53:30.681Z,101131.87
2023-09-06T23:56:32.993Z,101148.78
2023-09-06T23:59:35.633Z,101130.59
